EIDW

Dublin Airport

ICAO Code EIDW
IATA Code DUB
Name Dublin Airport
Location Dublin, Leinster, IE
Elevation 242 Feet / 73.8 Meters
Latitude 53.42129898
Longitude -6.27007008
METAR EIDW 260530Z 23014KT 170V280 9999 FEW008 BKN015 BKN020 12/10 Q1009 NOSIG
Extra information Display Charts and CFS
Display NOTAMS
Runway Length Width Surface Elevation
10 8652 ft 148 ft CON 242 ft
11 4393 ft 200 ft ASP 217 ft
16 6798 ft 200 ft ASP 217 ft
28 8652 ft 148 ft CON 202 ft
29 4393 ft 200 ft ASP 216 ft
34 6798 ft 200 ft ASP 202 ft